createdAt,value
2019-03-17T00:02:06.744Z,60.13
2019-03-17T00:04:56.015Z,59.93
2019-03-17T00:07:33.302Z,59.10
2019-03-17T00:10:03.851Z,60.70
2019-03-17T00:12:34.343Z,60.83
2019-03-17T00:15:23.917Z,61.47
2019-03-17T00:17:55.445Z,60.67
2019-03-17T00:20:29.680Z,60.10
2019-03-17T00:23:01.248Z,61.37
2019-03-17T00:25:31.813Z,62.00
2019-03-17T00:28:28.747Z,59.27
2019-03-17T00:31:01.661Z,60.37
2019-03-17T00:33:32.059Z,59.40
2019-03-17T00:36:02.560Z,60.70
2019-03-17T00:38:33.523Z,59.10
2019-03-17T00:41:14.303Z,60.50
2019-03-17T00:43:44.837Z,58.60
2019-03-17T00:46:15.828Z,60.13
2019-03-17T00:54:56.253Z,58.67
2019-03-17T00:57:27.049Z,59.90
2019-03-17T01:00:27.432Z,59.10
2019-03-17T01:02:58.057Z,59.17
2019-03-17T01:05:31.106Z,60.43
2019-03-17T01:08:02.753Z,60.27
2019-03-17T01:11:15.191Z,60.40
2019-03-17T01:13:45.893Z,61.43
2019-03-17T01:16:20.177Z,60.73
2019-03-17T01:18:59.497Z,60.07
2019-03-17T01:24:29.610Z,60.37
2019-03-17T01:27:04.546Z,60.57
2019-03-17T01:29:34.986Z,59.73
2019-03-17T01:32:35.143Z,59.83
2019-03-17T01:35:09.497Z,60.20
2019-03-17T01:37:39.766Z,60.33
2019-03-17T01:40:12.271Z,60.57
2019-03-17T01:42:43.662Z,60.70
2019-03-17T01:45:14.493Z,60.10
2019-03-17T01:47:48.322Z,60.47
2019-03-17T01:50:20.377Z,61.33
2019-03-17T01:52:54.523Z,61.23
2019-03-17T01:55:25.199Z,61.07
2019-03-17T01:57:56.231Z,62.20
2019-03-17T02:00:29.770Z,60.50
2019-03-17T02:03:04.252Z,62.20
2019-03-17T02:05:34.788Z,61.43
2019-03-17T02:08:08.884Z,62.33
2019-03-17T02:10:40.114Z,60.80
2019-03-17T02:13:14.713Z,60.47
2019-03-17T02:15:50.992Z,61.20
2019-03-17T02:18:29.627Z,61.60
2019-03-17T02:21:04.457Z,62.10
2019-03-17T02:23:38.621Z,60.87
2019-03-17T02:26:10.320Z,61.07
2019-03-17T02:28:40.929Z,61.60
2019-03-17T02:31:27.841Z,61.00
2019-03-17T02:33:59.014Z,61.23
2019-03-17T02:36:33.329Z,61.43
2019-03-17T02:39:08.362Z,61.00
2019-03-17T02:41:44.999Z,61.67
2019-03-17T02:44:21.416Z,62.00
2019-03-17T02:47:00.611Z,62.43
2019-03-17T02:49:51.843Z,61.80
2019-03-17T02:52:28.629Z,60.90
2019-03-17T02:55:12.487Z,62.40
2019-03-17T02:57:44.565Z,61.67
2019-03-17T03:00:18.370Z,61.63
2019-03-17T03:02:47.817Z,61.90
2019-03-17T03:05:22.550Z,63.03
2019-03-17T03:07:54.865Z,61.73
2019-03-17T03:10:31.529Z,61.77
2019-03-17T03:13:05.125Z,64.30
2019-03-17T03:16:06.307Z,61.50
2019-03-17T03:25:20.045Z,61.50
2019-03-17T03:27:50.646Z,62.47
2019-03-17T03:30:21.194Z,61.90
2019-03-17T03:32:51.985Z,62.27
2019-03-17T03:35:22.712Z,62.10
2019-03-17T03:37:53.457Z,62.43
2019-03-17T03:40:34.425Z,64.43
2019-03-17T03:43:12.100Z,62.97
2019-03-17T03:45:43.896Z,61.50
2019-03-17T03:48:33.273Z,61.93
2019-03-17T03:51:04.220Z,62.23
2019-03-17T03:53:35.013Z,61.43
2019-03-17T03:56:09.822Z,62.07
2019-03-17T03:58:40.292Z,62.40
2019-03-17T04:01:37.987Z,62.17
2019-03-17T04:04:30.832Z,62.43
2019-03-17T04:07:01.344Z,61.83
2019-03-17T04:09:31.907Z,63.87
2019-03-17T04:12:18.865Z,63.33
2019-03-17T04:18:10.342Z,63.00
2019-03-17T04:20:43.983Z,62.47
2019-03-17T04:23:16.188Z,62.50
2019-03-17T04:25:47.670Z,62.73
2019-03-17T04:28:21.923Z,62.77
2019-03-17T04:30:55.258Z,64.20
2019-03-17T04:33:55.760Z,62.53
2019-03-17T04:36:39.947Z,62.67
2019-03-17T04:39:10.121Z,62.70
2019-03-17T04:42:21.873Z,62.00
2019-03-17T04:51:07.896Z,62.63
2019-03-17T04:53:38.342Z,63.97
2019-03-17T04:56:08.999Z,63.43
2019-03-17T04:58:39.983Z,63.53
2019-03-17T05:01:10.956Z,64.90
2019-03-17T05:03:42.635Z,63.27
2019-03-17T05:06:13.099Z,63.70
2019-03-17T05:08:55.399Z,62.33
2019-03-17T05:11:32.561Z,62.63
2019-03-17T05:14:24.151Z,63.43
2019-03-17T05:16:55.953Z,63.93
2019-03-17T05:19:26.720Z,63.20
2019-03-17T05:22:00.409Z,66.13
2019-03-17T05:24:52.470Z,63.97
2019-03-17T05:27:29.692Z,64.13
2019-03-17T05:30:00.327Z,65.77
2019-03-17T05:38:07.892Z,63.53
2019-03-17T05:40:47.248Z,62.27
2019-03-17T05:43:17.946Z,64.80
2019-03-17T05:45:48.557Z,63.50
2019-03-17T05:48:50.900Z,63.60
2019-03-17T05:54:06.074Z,64.47
2019-03-17T05:56:36.689Z,63.20
2019-03-17T06:02:26.957Z,62.67
2019-03-17T06:05:01.086Z,63.77
2019-03-17T06:07:31.986Z,62.90
2019-03-17T06:10:12.452Z,61.80
2019-03-17T06:12:42.975Z,63.00
2019-03-17T06:15:22.778Z,61.97
2019-03-17T06:17:56.486Z,62.40
2019-03-17T06:20:46.501Z,63.23
2019-03-17T06:23:25.990Z,62.80
2019-03-17T06:25:56.471Z,62.30
2019-03-17T06:32:03.283Z,62.03
2019-03-17T06:34:43.558Z,62.40
2019-03-17T06:37:14.323Z,62.60
2019-03-17T06:39:44.818Z,63.23
2019-03-17T06:42:15.752Z,63.70
2019-03-17T06:44:46.142Z,62.20
2019-03-17T06:47:16.626Z,61.73
2019-03-17T06:49:47.280Z,62.70
2019-03-17T06:52:18.791Z,60.97
2019-03-17T06:54:49.222Z,60.50
2019-03-17T06:57:19.892Z,53.60
2019-03-17T06:59:50.345Z,52.30
2019-03-17T07:02:23.784Z,53.50
2019-03-17T07:04:55.289Z,53.83
2019-03-17T07:07:25.722Z,54.27
2019-03-17T07:09:56.517Z,55.13
2019-03-17T07:12:26.969Z,55.67
2019-03-17T07:14:57.324Z,56.67
2019-03-17T07:17:28.793Z,55.60
2019-03-17T07:19:59.401Z,55.27
2019-03-17T07:22:29.846Z,55.23
2019-03-17T07:25:00.365Z,55.23
2019-03-17T07:27:30.761Z,55.03
2019-03-17T07:30:01.202Z,54.63
2019-03-17T07:32:31.798Z,52.83
2019-03-17T07:35:02.244Z,52.37
2019-03-17T07:37:32.787Z,53.53
2019-03-17T07:40:03.311Z,54.77
2019-03-17T07:42:33.822Z,53.57
2019-03-17T07:45:04.627Z,54.37
2019-03-17T07:47:35.770Z,54.90
2019-03-17T07:50:07.385Z,54.63
2019-03-17T07:52:37.921Z,54.10
2019-03-17T07:55:10.093Z,52.47
2019-03-17T07:57:40.522Z,52.60
2019-03-17T08:00:11.232Z,53.83
2019-03-17T08:02:41.781Z,52.70
2019-03-17T08:05:12.531Z,52.83
2019-03-17T08:07:43.153Z,52.57
2019-03-17T08:10:13.794Z,53.90
2019-03-17T08:12:44.358Z,55.03
2019-03-17T08:15:14.785Z,54.77
2019-03-17T08:17:45.299Z,54.70
2019-03-17T08:20:15.749Z,53.73
2019-03-17T08:22:46.292Z,53.90
2019-03-17T08:25:16.743Z,54.00
2019-03-17T08:27:47.307Z,55.67
2019-03-17T08:30:17.897Z,55.97
2019-03-17T08:32:48.458Z,56.13
2019-03-17T08:35:18.947Z,54.97
2019-03-17T08:37:49.517Z,58.27
2019-03-17T08:40:20.055Z,57.70
2019-03-17T08:42:50.647Z,57.90
2019-03-17T08:45:21.202Z,58.93
2019-03-17T08:47:57.899Z,59.27
2019-03-17T08:50:23.798Z,60.77
2019-03-17T08:52:55.366Z,59.47
2019-03-17T08:55:25.858Z,60.03
2019-03-17T08:57:56.376Z,59.30
2019-03-17T09:00:27.019Z,60.23
2019-03-17T09:02:57.545Z,60.87
2019-03-17T09:05:28.095Z,60.87
2019-03-17T09:07:58.738Z,60.87
2019-03-17T09:10:29.370Z,60.87
2019-03-17T09:12:59.950Z,61.23
2019-03-17T09:15:30.556Z,60.80
2019-03-17T09:18:04.265Z,61.73
2019-03-17T09:20:34.724Z,62.00
2019-03-17T09:23:05.383Z,62.50
2019-03-17T09:25:35.902Z,62.23
2019-03-17T09:28:06.402Z,62.27
2019-03-17T09:30:37.017Z,62.53
2019-03-17T09:33:08.338Z,63.55
2019-03-17T09:35:38.839Z,63.45
2019-03-17T09:38:09.417Z,62.10
2019-03-17T09:40:39.922Z,60.12
2019-03-17T09:43:10.278Z,62.88
2019-03-17T09:45:40.703Z,64.07
2019-03-17T09:48:11.422Z,62.45
2019-03-17T09:50:41.935Z,64.50
2019-03-17T09:53:12.431Z,63.78
2019-03-17T09:55:42.941Z,62.35
2019-03-17T09:58:13.321Z,64.03
2019-03-17T10:00:43.685Z,66.60
2019-03-17T10:03:14.169Z,64.37
2019-03-17T10:05:44.717Z,68.40
2019-03-17T10:08:15.221Z,65.20
2019-03-17T10:10:45.708Z,65.97
2019-03-17T10:13:16.321Z,66.90
2019-03-17T10:15:46.754Z,64.62
2019-03-17T10:18:17.216Z,65.95
2019-03-17T10:20:48.043Z,64.10
2019-03-17T10:23:18.562Z,67.10
2019-03-17T10:25:49.135Z,66.85
2019-03-17T10:28:19.573Z,68.55
2019-03-17T10:30:50.048Z,68.12
2019-03-17T10:33:22.168Z,68.87
2019-03-17T10:35:52.772Z,68.97
2019-03-17T10:38:23.334Z,69.30
2019-03-17T10:40:54.777Z,70.72
2019-03-17T10:43:25.323Z,67.08
2019-03-17T10:45:55.765Z,71.82
2019-03-17T10:48:26.189Z,71.40
2019-03-17T10:50:56.878Z,71.00
2019-03-17T10:53:27.372Z,70.83
2019-03-17T10:55:57.972Z,70.80
2019-03-17T10:58:28.577Z,69.07
2019-03-17T11:00:59.099Z,72.27
2019-03-17T11:03:29.556Z,75.37
2019-03-17T11:06:00.124Z,73.55
2019-03-17T11:08:30.596Z,71.15
2019-03-17T11:11:01.042Z,74.12
2019-03-17T11:13:31.866Z,75.55
2019-03-17T11:16:02.352Z,74.22
2019-03-17T11:18:32.935Z,77.53
2019-03-17T11:21:03.327Z,74.00
2019-03-17T11:23:33.850Z,76.97
2019-03-17T11:26:04.334Z,78.07
2019-03-17T11:28:35.037Z,77.62
2019-03-17T11:31:05.484Z,77.90
2019-03-17T11:33:35.922Z,78.02
2019-03-17T11:36:06.541Z,78.67
2019-03-17T11:38:37.167Z,76.22
2019-03-17T11:41:07.660Z,80.40
2019-03-17T11:43:39.090Z,79.58
2019-03-17T11:46:09.565Z,79.72
2019-03-17T11:48:40.080Z,80.75
2019-03-17T11:51:10.733Z,79.10
2019-03-17T11:53:41.212Z,79.65
2019-03-17T11:56:11.790Z,82.60
2019-03-17T11:58:42.220Z,79.90
2019-03-17T12:01:12.745Z,82.40
2019-03-17T12:03:43.209Z,82.47
2019-03-17T12:06:15.512Z,85.07
2019-03-17T12:08:45.965Z,84.13
2019-03-17T12:11:16.513Z,85.05
2019-03-17T12:13:47.093Z,86.05
2019-03-17T12:16:17.540Z,84.97
2019-03-17T12:18:47.987Z,88.17
2019-03-17T12:21:18.427Z,87.60
2019-03-17T12:23:48.955Z,85.57
2019-03-17T12:26:19.492Z,86.05
2019-03-17T12:28:50.920Z,90.65
2019-03-17T12:31:21.415Z,86.00
2019-03-17T12:33:51.970Z,87.70
2019-03-17T12:36:22.484Z,86.97
2019-03-17T12:38:53.020Z,86.32
2019-03-17T12:41:23.437Z,87.22
2019-03-17T12:43:53.851Z,88.97
2019-03-17T12:46:24.284Z,91.45
2019-03-17T12:48:54.873Z,88.42
2019-03-17T12:51:25.364Z,89.70
2019-03-17T12:53:55.869Z,92.65
2019-03-17T12:56:26.556Z,90.57
2019-03-17T12:58:57.095Z,91.60
2019-03-17T13:01:27.626Z,96.32
2019-03-17T13:03:58.132Z,90.17
2019-03-17T13:06:28.721Z,93.62
2019-03-17T13:09:01.055Z,93.92
2019-03-17T13:11:32.659Z,92.65
2019-03-17T13:14:03.285Z,91.08
2019-03-17T13:16:33.905Z,93.90
2019-03-17T13:19:04.465Z,91.85
2019-03-17T13:21:34.967Z,95.77
2019-03-17T13:24:05.558Z,93.07
2019-03-17T13:26:36.001Z,95.65
2019-03-17T13:29:06.496Z,93.62
2019-03-17T13:31:37.017Z,94.67
2019-03-17T13:34:07.551Z,93.62
2019-03-17T13:36:39.236Z,96.35
2019-03-17T13:39:10.213Z,94.25
2019-03-17T13:41:40.911Z,98.22
2019-03-17T13:44:11.473Z,92.70
2019-03-17T13:46:41.952Z,96.57
2019-03-17T13:49:12.549Z,100.27
2019-03-17T13:51:43.324Z,95.90
2019-03-17T13:54:13.860Z,97.65
2019-03-17T13:56:44.441Z,95.87
2019-03-17T13:59:15.002Z,97.88
2019-03-17T14:01:45.526Z,100.33
2019-03-17T14:04:17.834Z,99.87
2019-03-17T14:06:48.225Z,98.50
2019-03-17T14:09:18.885Z,96.90
2019-03-17T14:11:49.324Z,100.67
2019-03-17T14:14:19.977Z,101.27
2019-03-17T14:16:50.554Z,100.72
2019-03-17T14:19:21.065Z,100.07
2019-03-17T14:21:51.668Z,101.05
2019-03-17T14:24:22.245Z,98.78
2019-03-17T14:26:52.831Z,99.95
2019-03-17T14:29:23.363Z,101.07
2019-03-17T14:31:53.898Z,101.30
2019-03-17T14:34:24.408Z,98.40
2019-03-17T14:36:55.056Z,101.22
2019-03-17T14:39:25.631Z,103.38
2019-03-17T14:41:56.246Z,99.95
2019-03-17T14:44:26.795Z,98.70
2019-03-17T14:46:57.428Z,100.87
2019-03-17T14:49:28.009Z,102.07
2019-03-17T14:51:58.589Z,100.92
2019-03-17T14:54:29.297Z,102.78
2019-03-17T14:56:59.921Z,102.42
2019-03-17T14:59:30.390Z,101.80
2019-03-17T15:02:00.816Z,101.70
2019-03-17T15:04:31.367Z,102.90
2019-03-17T15:07:01.945Z,105.15
2019-03-17T15:09:32.518Z,102.02
2019-03-17T15:12:03.014Z,100.05
2019-03-17T15:14:33.857Z,101.70
2019-03-17T15:17:04.441Z,101.05
2019-03-17T15:19:35.161Z,101.42
2019-03-17T15:22:05.734Z,105.58
2019-03-17T15:24:36.283Z,100.50
2019-03-17T15:27:06.804Z,104.95
2019-03-17T15:29:37.215Z,103.22
2019-03-17T15:32:07.874Z,99.20
2019-03-17T15:34:38.356Z,103.53
2019-03-17T15:37:08.779Z,104.95
2019-03-17T15:39:39.408Z,102.12
2019-03-17T15:42:09.954Z,104.47
2019-03-17T15:44:40.506Z,105.75
2019-03-17T15:47:10.925Z,108.32
2019-03-17T15:49:41.446Z,102.00
2019-03-17T15:52:11.861Z,102.60
2019-03-17T15:54:42.455Z,105.67
2019-03-17T15:57:13.919Z,104.05
2019-03-17T15:59:44.425Z,104.50
2019-03-17T16:02:17.439Z,102.78
2019-03-17T16:04:47.969Z,104.38
2019-03-17T16:07:18.456Z,106.75
2019-03-17T16:09:48.933Z,105.90
2019-03-17T16:12:19.389Z,102.62
2019-03-17T16:14:49.953Z,103.42
2019-03-17T16:17:20.394Z,102.17
2019-03-17T16:19:50.928Z,104.78
2019-03-17T16:22:21.314Z,104.20
2019-03-17T16:24:51.857Z,103.80
2019-03-17T16:27:22.350Z,107.10
2019-03-17T16:29:54.526Z,110.95
2019-03-17T16:32:25.040Z,109.20
2019-03-17T16:34:55.545Z,110.97
2019-03-17T16:37:25.983Z,113.35
2019-03-17T16:39:56.538Z,109.90
2019-03-17T16:42:27.009Z,109.83
2019-03-17T16:44:57.604Z,107.37
2019-03-17T16:47:28.078Z,107.52
2019-03-17T16:49:59.656Z,110.68
2019-03-17T16:52:30.261Z,110.57
2019-03-17T16:55:00.836Z,110.00
2019-03-17T16:57:31.543Z,107.37
2019-03-17T17:00:02.116Z,109.78
2019-03-17T17:02:33.873Z,109.15
2019-03-17T17:05:05.149Z,109.78
2019-03-17T17:07:35.831Z,108.40
2019-03-17T17:10:07.045Z,107.20
2019-03-17T17:12:37.609Z,107.85
2019-03-17T17:15:11.770Z,111.22
2019-03-17T17:17:42.386Z,106.15
2019-03-17T17:20:15.060Z,107.10
2019-03-17T17:22:45.954Z,108.92
2019-03-17T17:25:16.468Z,109.60
2019-03-17T17:27:46.958Z,109.70
2019-03-17T17:30:17.630Z,108.42
2019-03-17T17:32:48.110Z,109.30
2019-03-17T17:35:19.577Z,109.00
2019-03-17T17:37:50.209Z,114.52
2019-03-17T17:40:20.790Z,110.48
2019-03-17T17:42:51.862Z,108.83
2019-03-17T17:45:22.521Z,110.00
2019-03-17T17:47:53.009Z,106.63
2019-03-17T17:50:25.137Z,109.67
2019-03-17T17:52:55.718Z,109.75
2019-03-17T17:55:26.258Z,108.47
2019-03-17T17:57:56.885Z,106.12
2019-03-17T18:00:29.697Z,106.20
2019-03-17T18:03:00.371Z,108.07
2019-03-17T18:05:31.115Z,108.50
2019-03-17T18:08:01.750Z,106.00
2019-03-17T18:10:32.359Z,106.35
2019-03-17T18:13:02.811Z,111.22
2019-03-17T18:15:33.432Z,106.85
2019-03-17T18:18:03.873Z,108.70
2019-03-17T18:20:34.392Z,108.83
2019-03-17T18:23:17.314Z,105.55
2019-03-17T18:25:38.069Z,105.60
2019-03-17T18:28:08.584Z,109.03
2019-03-17T18:30:39.052Z,109.07
2019-03-17T18:33:09.637Z,106.20
2019-03-17T18:35:40.302Z,110.88
2019-03-17T18:38:10.849Z,107.05
2019-03-17T18:40:42.538Z,108.45
2019-03-17T18:43:12.993Z,108.95
2019-03-17T18:45:44.682Z,107.20
2019-03-17T18:48:15.263Z,105.85
2019-03-17T18:50:45.897Z,109.97
2019-03-17T18:53:16.521Z,104.15
2019-03-17T18:55:47.541Z,107.90
2019-03-17T18:58:18.303Z,105.65
2019-03-17T19:00:49.143Z,105.72
2019-03-17T19:03:19.935Z,108.65
2019-03-17T19:05:50.804Z,109.48
2019-03-17T19:08:21.699Z,112.68
2019-03-17T19:10:53.848Z,110.05
2019-03-17T19:13:24.526Z,108.30
2019-03-17T19:15:55.186Z,107.85
2019-03-17T19:18:25.753Z,106.87
2019-03-17T19:20:56.366Z,103.58
2019-03-17T19:23:26.985Z,106.32
2019-03-17T19:25:57.524Z,105.52
2019-03-17T19:28:28.162Z,102.32
2019-03-17T19:30:58.755Z,103.07
2019-03-17T19:33:29.457Z,104.32
2019-03-17T19:36:00.001Z,105.52
2019-03-17T19:38:30.515Z,106.32
2019-03-17T19:41:02.050Z,102.25
2019-03-17T19:43:32.842Z,105.12
2019-03-17T19:46:04.417Z,103.87
2019-03-17T19:48:34.834Z,104.67
2019-03-17T19:51:05.498Z,104.90
2019-03-17T19:53:36.073Z,102.50
2019-03-17T19:56:06.559Z,105.32
2019-03-17T19:58:37.042Z,108.40
2019-03-17T20:01:07.691Z,107.22
2019-03-17T20:03:38.262Z,103.53
2019-03-17T20:06:10.672Z,106.35
2019-03-17T20:08:41.187Z,104.32
2019-03-17T20:11:11.832Z,106.72
2019-03-17T20:13:42.442Z,105.67
2019-03-17T20:16:12.989Z,104.38
2019-03-17T20:18:43.539Z,103.53
2019-03-17T20:21:14.341Z,104.40
2019-03-17T20:23:44.925Z,106.78
2019-03-17T20:26:15.566Z,106.78
2019-03-17T20:28:46.154Z,106.60
2019-03-17T20:31:16.878Z,105.25
2019-03-17T20:33:47.420Z,101.62
2019-03-17T20:36:18.203Z,103.40
2019-03-17T20:38:48.747Z,105.05
2019-03-17T20:41:19.250Z,105.55
2019-03-17T20:43:49.788Z,104.60
2019-03-17T20:46:20.390Z,104.15
2019-03-17T20:48:51.148Z,100.80
2019-03-17T20:51:21.656Z,106.87
2019-03-17T20:53:52.264Z,102.97
2019-03-17T20:56:22.743Z,104.30
2019-03-17T20:58:53.386Z,103.15
2019-03-17T21:01:24.178Z,100.67
2019-03-17T21:03:54.735Z,101.22
2019-03-17T21:06:25.435Z,100.90
2019-03-17T21:08:56.075Z,102.55
2019-03-17T21:11:26.823Z,99.85
2019-03-17T21:13:57.359Z,100.02
2019-03-17T21:16:27.994Z,101.22
2019-03-17T21:18:58.611Z,99.95
2019-03-17T21:21:29.164Z,100.38
2019-03-17T21:23:59.810Z,99.07
2019-03-17T21:26:30.328Z,96.02
2019-03-17T21:29:00.952Z,97.42
2019-03-17T21:31:31.627Z,98.05
2019-03-17T21:34:02.241Z,97.30
2019-03-17T21:36:32.884Z,99.90
2019-03-17T21:39:04.099Z,97.37
2019-03-17T21:41:35.051Z,101.20
2019-03-17T21:44:05.504Z,102.12
2019-03-17T21:46:35.949Z,101.25
2019-03-17T21:49:06.681Z,97.47
2019-03-17T21:51:37.370Z,99.80
2019-03-17T21:54:08.070Z,99.30
2019-03-17T21:56:38.560Z,99.58
2019-03-17T21:59:09.150Z,98.65
2019-03-17T22:01:40.543Z,98.15
2019-03-17T22:04:10.992Z,100.42
2019-03-17T22:06:42.660Z,101.55
2019-03-17T22:09:13.245Z,100.15
2019-03-17T22:11:43.714Z,100.07
2019-03-17T22:14:14.328Z,101.80
2019-03-17T22:16:44.900Z,101.42
2019-03-17T22:19:15.340Z,100.05
2019-03-17T22:21:46.036Z,100.25
2019-03-17T22:24:16.625Z,100.30
2019-03-17T22:26:47.227Z,102.07
2019-03-17T22:29:17.720Z,101.60
2019-03-17T22:31:48.354Z,101.95
2019-03-17T22:34:18.892Z,101.25
2019-03-17T22:36:49.441Z,100.70
2019-03-17T22:39:19.823Z,100.93
2019-03-17T22:41:50.237Z,102.57
2019-03-17T22:44:25.063Z,101.27
2019-03-17T22:46:52.885Z,99.90
2019-03-17T22:49:23.336Z,100.10
2019-03-17T22:51:53.837Z,99.90
2019-03-17T22:54:24.361Z,101.87
2019-03-17T22:56:55.128Z,102.37
2019-03-17T22:59:25.798Z,101.07
2019-03-17T23:01:56.532Z,100.83
2019-03-17T23:04:27.131Z,103.93
2019-03-17T23:06:59.465Z,101.67
2019-03-17T23:09:30.183Z,104.53
2019-03-17T23:12:00.790Z,103.30
2019-03-17T23:14:36.583Z,101.57
2019-03-17T23:17:04.905Z,103.80
2019-03-17T23:19:35.472Z,101.17
2019-03-17T23:22:06.066Z,101.50
2019-03-17T23:24:36.624Z,103.77
2019-03-17T23:27:07.324Z,105.30
2019-03-17T23:29:38.090Z,103.93
2019-03-17T23:32:08.624Z,102.47
2019-03-17T23:34:39.405Z,102.50
2019-03-17T23:37:09.888Z,102.07
2019-03-17T23:39:40.425Z,102.80
2019-03-17T23:42:10.952Z,103.63
2019-03-17T23:44:48.910Z,103.60
2019-03-17T23:47:13.756Z,104.37
2019-03-17T23:49:44.470Z,104.00
2019-03-17T23:52:15.976Z,104.00
2019-03-17T23:54:46.642Z,104.33
2019-03-17T23:57:17.337Z,104.73
2019-03-17T23:59:48.118Z,103.73
